sensor_id;sensor_type;location;lat;lon;timestamp;P1;durP1;ratioP1;P2;durP2;ratioP2
18376;SDS011;9315;52.624;13.544;2022-11-15T00:01:11;81.67;;;31.57;;
18376;SDS011;9315;52.624;13.544;2022-11-15T00:03:44;82.53;;;32.67;;
18376;SDS011;9315;52.624;13.544;2022-11-15T00:06:12;68.50;;;30.07;;
18376;SDS011;9315;52.624;13.544;2022-11-15T00:08:39;93.70;;;35.80;;
18376;SDS011;9315;52.624;13.544;2022-11-15T00:11:06;73.07;;;29.37;;
18376;SDS011;9315;52.624;13.544;2022-11-15T00:13:38;75.20;;;31.60;;
18376;SDS011;9315;52.624;13.544;2022-11-15T00:16:05;84.33;;;32.23;;
18376;SDS011;9315;52.624;13.544;2022-11-15T00:18:34;82.00;;;32.30;;
18376;SDS011;9315;52.624;13.544;2022-11-15T00:21:03;64.60;;;28.43;;
18376;SDS011;9315;52.624;13.544;2022-11-15T00:23:33;73.93;;;30.97;;
18376;SDS011;9315;52.624;13.544;2022-11-15T00:26:00;85.13;;;33.03;;
18376;SDS011;9315;52.624;13.544;2022-11-15T00:28:28;67.33;;;28.93;;
18376;SDS011;9315;52.624;13.544;2022-11-15T00:31:02;101.93;;;36.83;;
18376;SDS011;9315;52.624;13.544;2022-11-15T00:33:33;91.80;;;35.53;;
18376;SDS011;9315;52.624;13.544;2022-11-15T00:36:01;84.17;;;33.03;;
18376;SDS011;9315;52.624;13.544;2022-11-15T00:38:36;81.10;;;32.13;;
18376;SDS011;9315;52.624;13.544;2022-11-15T00:41:06;76.43;;;30.53;;
18376;SDS011;9315;52.624;13.544;2022-11-15T00:43:35;100.97;;;35.63;;
18376;SDS011;9315;52.624;13.544;2022-11-15T00:46:02;66.27;;;28.40;;
18376;SDS011;9315;52.624;13.544;2022-11-15T00:48:30;76.60;;;29.63;;
18376;SDS011;9315;52.624;13.544;2022-11-15T00:50:57;91.07;;;35.20;;
18376;SDS011;9315;52.624;13.544;2022-11-15T00:53:24;85.00;;;32.43;;
18376;SDS011;9315;52.624;13.544;2022-11-15T00:55:52;93.30;;;34.77;;
18376;SDS011;9315;52.624;13.544;2022-11-15T00:58:19;72.97;;;30.33;;
18376;SDS011;9315;52.624;13.544;2022-11-15T01:00:47;77.07;;;30.43;;
18376;SDS011;9315;52.624;13.544;2022-11-15T01:03:14;89.27;;;33.67;;
18376;SDS011;9315;52.624;13.544;2022-11-15T01:05:41;60.53;;;27.63;;
18376;SDS011;9315;52.624;13.544;2022-11-15T01:08:12;67.67;;;29.37;;
18376;SDS011;9315;52.624;13.544;2022-11-15T01:10:41;98.27;;;36.33;;
18376;SDS011;9315;52.624;13.544;2022-11-15T01:13:08;87.83;;;34.57;;
18376;SDS011;9315;52.624;13.544;2022-11-15T01:15:38;74.03;;;30.33;;
18376;SDS011;9315;52.624;13.544;2022-11-15T01:18:07;112.27;;;38.90;;
18376;SDS011;9315;52.624;13.544;2022-11-15T01:20:38;74.30;;;30.63;;
18376;SDS011;9315;52.624;13.544;2022-11-15T01:23:09;114.73;;;39.90;;
18376;SDS011;9315;52.624;13.544;2022-11-15T01:25:36;75.17;;;30.80;;
18376;SDS011;9315;52.624;13.544;2022-11-15T01:28:03;114.37;;;38.13;;
18376;SDS011;9315;52.624;13.544;2022-11-15T01:30:30;67.13;;;29.27;;
18376;SDS011;9315;52.624;13.544;2022-11-15T01:32:57;71.33;;;30.60;;
18376;SDS011;9315;52.624;13.544;2022-11-15T01:35:24;105.67;;;37.70;;
18376;SDS011;9315;52.624;13.544;2022-11-15T01:37:51;70.00;;;29.47;;
18376;SDS011;9315;52.624;13.544;2022-11-15T01:40:18;92.37;;;36.47;;
18376;SDS011;9315;52.624;13.544;2022-11-15T01:42:45;91.83;;;35.20;;
18376;SDS011;9315;52.624;13.544;2022-11-15T01:45:16;77.23;;;30.87;;
18376;SDS011;9315;52.624;13.544;2022-11-15T01:47:45;86.60;;;33.83;;
18376;SDS011;9315;52.624;13.544;2022-11-15T01:50:22;65.60;;;27.57;;
18376;SDS011;9315;52.624;13.544;2022-11-15T01:52:56;61.50;;;27.27;;
18376;SDS011;9315;52.624;13.544;2022-11-15T01:55:24;87.43;;;34.10;;
18376;SDS011;9315;52.624;13.544;2022-11-15T01:57:55;74.30;;;31.33;;
18376;SDS011;9315;52.624;13.544;2022-11-15T02:00:28;75.43;;;30.70;;
18376;SDS011;9315;52.624;13.544;2022-11-15T02:02:57;70.03;;;30.17;;
18376;SDS011;9315;52.624;13.544;2022-11-15T02:05:24;165.37;;;44.07;;
18376;SDS011;9315;52.624;13.544;2022-11-15T02:07:51;91.63;;;34.90;;
18376;SDS011;9315;52.624;13.544;2022-11-15T02:10:21;132.00;;;41.83;;
18376;SDS011;9315;52.624;13.544;2022-11-15T02:12:50;137.03;;;44.17;;
18376;SDS011;9315;52.624;13.544;2022-11-15T02:15:18;89.70;;;34.83;;
18376;SDS011;9315;52.624;13.544;2022-11-15T02:17:56;75.07;;;32.67;;
18376;SDS011;9315;52.624;13.544;2022-11-15T02:21:35;92.83;;;34.83;;
18376;SDS011;9315;52.624;13.544;2022-11-15T02:30:24;88.60;;;33.40;;
18376;SDS011;9315;52.624;13.544;2022-11-15T02:33:14;89.50;;;33.67;;
18376;SDS011;9315;52.624;13.544;2022-11-15T02:36:15;99.30;;;37.47;;
18376;SDS011;9315;52.624;13.544;2022-11-15T02:39:38;103.40;;;35.53;;
18376;SDS011;9315;52.624;13.544;2022-11-15T02:42:31;97.93;;;36.80;;
18376;SDS011;9315;52.624;13.544;2022-11-15T02:45:31;65.40;;;29.07;;
18376;SDS011;9315;52.624;13.544;2022-11-15T02:48:10;67.03;;;30.97;;
18376;SDS011;9315;52.624;13.544;2022-11-15T02:50:38;77.83;;;31.70;;
18376;SDS011;9315;52.624;13.544;2022-11-15T02:53:06;131.80;;;41.27;;
18376;SDS011;9315;52.624;13.544;2022-11-15T02:55:38;91.97;;;33.23;;
18376;SDS011;9315;52.624;13.544;2022-11-15T03:01:26;105.43;;;36.63;;
18376;SDS011;9315;52.624;13.544;2022-11-15T03:04:36;78.00;;;32.00;;
18376;SDS011;9315;52.624;13.544;2022-11-15T03:07:25;94.67;;;35.37;;
18376;SDS011;9315;52.624;13.544;2022-11-15T03:13:49;86.17;;;32.63;;
18376;SDS011;9315;52.624;13.544;2022-11-15T03:19:54;70.63;;;29.43;;
18376;SDS011;9315;52.624;13.544;2022-11-15T03:22:30;89.70;;;34.73;;
18376;SDS011;9315;52.624;13.544;2022-11-15T03:25:09;90.93;;;33.77;;
18376;SDS011;9315;52.624;13.544;2022-11-15T03:27:46;69.73;;;29.50;;
18376;SDS011;9315;52.624;13.544;2022-11-15T03:30:18;69.27;;;30.77;;
18376;SDS011;9315;52.624;13.544;2022-11-15T03:33:04;95.33;;;35.93;;
18376;SDS011;9315;52.624;13.544;2022-11-15T03:35:33;75.47;;;32.37;;
18376;SDS011;9315;52.624;13.544;2022-11-15T03:40:58;67.27;;;28.80;;
18376;SDS011;9315;52.624;13.544;2022-11-15T03:46:38;77.37;;;31.60;;
18376;SDS011;9315;52.624;13.544;2022-11-15T03:49:34;84.57;;;32.73;;
18376;SDS011;9315;52.624;13.544;2022-11-15T03:52:06;74.57;;;30.67;;
18376;SDS011;9315;52.624;13.544;2022-11-15T03:54:35;102.17;;;34.53;;
18376;SDS011;9315;52.624;13.544;2022-11-15T03:57:03;98.93;;;35.13;;
18376;SDS011;9315;52.624;13.544;2022-11-15T03:59:30;74.60;;;31.27;;
18376;SDS011;9315;52.624;13.544;2022-11-15T04:01:57;94.20;;;35.63;;
18376;SDS011;9315;52.624;13.544;2022-11-15T04:04:24;76.10;;;30.57;;
18376;SDS011;9315;52.624;13.544;2022-11-15T04:06:51;95.77;;;36.03;;
18376;SDS011;9315;52.624;13.544;2022-11-15T04:09:19;91.10;;;33.97;;
18376;SDS011;9315;52.624;13.544;2022-11-15T04:11:46;71.47;;;29.93;;
18376;SDS011;9315;52.624;13.544;2022-11-15T04:14:13;74.10;;;30.73;;
18376;SDS011;9315;52.624;13.544;2022-11-15T04:16:40;102.77;;;36.97;;
18376;SDS011;9315;52.624;13.544;2022-11-15T04:19:09;99.97;;;35.37;;
18376;SDS011;9315;52.624;13.544;2022-11-15T04:21:55;67.43;;;29.93;;
18376;SDS011;9315;52.624;13.544;2022-11-15T04:24:40;89.30;;;33.30;;
18376;SDS011;9315;52.624;13.544;2022-11-15T04:27:07;75.80;;;30.90;;
18376;SDS011;9315;52.624;13.544;2022-11-15T04:29:34;105.97;;;35.47;;
18376;SDS011;9315;52.624;13.544;2022-11-15T04:32:02;104.10;;;35.77;;
18376;SDS011;9315;52.624;13.544;2022-11-15T04:34:32;99.87;;;35.77;;
18376;SDS011;9315;52.624;13.544;2022-11-15T04:36:59;98.37;;;33.67;;
18376;SDS011;9315;52.624;13.544;2022-11-15T04:39:39;74.73;;;30.70;;
18376;SDS011;9315;52.624;13.544;2022-11-15T04:42:08;75.87;;;31.00;;
18376;SDS011;9315;52.624;13.544;2022-11-15T04:44:35;66.20;;;28.77;;
18376;SDS011;9315;52.624;13.544;2022-11-15T04:47:03;87.77;;;34.10;;
18376;SDS011;9315;52.624;13.544;2022-11-15T04:49:30;74.20;;;31.17;;
18376;SDS011;9315;52.624;13.544;2022-11-15T04:52:00;67.93;;;28.70;;
18376;SDS011;9315;52.624;13.544;2022-11-15T04:54:27;68.37;;;29.30;;
18376;SDS011;9315;52.624;13.544;2022-11-15T04:56:54;78.53;;;30.87;;
18376;SDS011;9315;52.624;13.544;2022-11-15T04:59:21;70.47;;;29.53;;
18376;SDS011;9315;52.624;13.544;2022-11-15T05:01:49;71.53;;;29.73;;
18376;SDS011;9315;52.624;13.544;2022-11-15T05:04:18;69.53;;;29.73;;
18376;SDS011;9315;52.624;13.544;2022-11-15T05:06:49;67.90;;;29.10;;
18376;SDS011;9315;52.624;13.544;2022-11-15T05:09:18;63.57;;;27.27;;
18376;SDS011;9315;52.624;13.544;2022-11-15T05:11:47;70.20;;;28.90;;
18376;SDS011;9315;52.624;13.544;2022-11-15T05:14:14;68.40;;;28.03;;
18376;SDS011;9315;52.624;13.544;2022-11-15T05:16:42;58.27;;;26.23;;
18376;SDS011;9315;52.624;13.544;2022-11-15T05:19:09;66.70;;;28.23;;
18376;SDS011;9315;52.624;13.544;2022-11-15T05:21:39;60.30;;;27.00;;
18376;SDS011;9315;52.624;13.544;2022-11-15T05:24:08;68.43;;;29.20;;
18376;SDS011;9315;52.624;13.544;2022-11-15T05:26:38;71.37;;;29.67;;
18376;SDS011;9315;52.624;13.544;2022-11-15T05:29:05;60.00;;;26.87;;
18376;SDS011;9315;52.624;13.544;2022-11-15T05:31:36;63.03;;;27.77;;
18376;SDS011;9315;52.624;13.544;2022-11-15T05:34:07;64.70;;;27.17;;
18376;SDS011;9315;52.624;13.544;2022-11-15T05:36:35;66.63;;;26.83;;
18376;SDS011;9315;52.624;13.544;2022-11-15T05:39:08;56.70;;;26.77;;
18376;SDS011;9315;52.624;13.544;2022-11-15T05:41:44;74.33;;;29.67;;
18376;SDS011;9315;52.624;13.544;2022-11-15T05:44:21;59.10;;;27.07;;
18376;SDS011;9315;52.624;13.544;2022-11-15T05:46:52;63.20;;;26.43;;
18376;SDS011;9315;52.624;13.544;2022-11-15T05:49:22;88.70;;;32.73;;
18376;SDS011;9315;52.624;13.544;2022-11-15T05:51:59;73.53;;;30.27;;
18376;SDS011;9315;52.624;13.544;2022-11-15T05:54:29;61.60;;;27.63;;
18376;SDS011;9315;52.624;13.544;2022-11-15T05:56:58;59.30;;;25.93;;
18376;SDS011;9315;52.624;13.544;2022-11-15T05:59:28;67.20;;;28.33;;
18376;SDS011;9315;52.624;13.544;2022-11-15T06:01:57;71.00;;;28.57;;
18376;SDS011;9315;52.624;13.544;2022-11-15T06:04:25;69.80;;;28.10;;
18376;SDS011;9315;52.624;13.544;2022-11-15T06:06:52;80.37;;;31.47;;
18376;SDS011;9315;52.624;13.544;2022-11-15T06:09:19;64.63;;;27.47;;
18376;SDS011;9315;52.624;13.544;2022-11-15T06:11:46;68.83;;;29.17;;
18376;SDS011;9315;52.624;13.544;2022-11-15T06:14:14;67.10;;;29.40;;
18376;SDS011;9315;52.624;13.544;2022-11-15T06:16:41;57.83;;;26.03;;
18376;SDS011;9315;52.624;13.544;2022-11-15T06:19:08;70.83;;;27.90;;
18376;SDS011;9315;52.624;13.544;2022-11-15T06:21:35;65.17;;;28.87;;
18376;SDS011;9315;52.624;13.544;2022-11-15T06:24:02;63.63;;;28.33;;
18376;SDS011;9315;52.624;13.544;2022-11-15T06:26:31;59.53;;;26.50;;
18376;SDS011;9315;52.624;13.544;2022-11-15T06:28:58;55.47;;;25.00;;
18376;SDS011;9315;52.624;13.544;2022-11-15T06:31:25;55.03;;;25.30;;
18376;SDS011;9315;52.624;13.544;2022-11-15T06:33:52;58.07;;;26.03;;
18376;SDS011;9315;52.624;13.544;2022-11-15T06:36:19;55.40;;;24.30;;
18376;SDS011;9315;52.624;13.544;2022-11-15T06:38:46;60.10;;;26.23;;
18376;SDS011;9315;52.624;13.544;2022-11-15T06:41:13;53.50;;;24.37;;
18376;SDS011;9315;52.624;13.544;2022-11-15T06:43:41;66.90;;;28.50;;
18376;SDS011;9315;52.624;13.544;2022-11-15T06:46:08;60.63;;;25.60;;
18376;SDS011;9315;52.624;13.544;2022-11-15T06:48:35;53.57;;;25.23;;
18376;SDS011;9315;52.624;13.544;2022-11-15T06:51:03;59.77;;;26.20;;
18376;SDS011;9315;52.624;13.544;2022-11-15T06:53:31;58.80;;;26.30;;
18376;SDS011;9315;52.624;13.544;2022-11-15T06:56:03;53.43;;;24.70;;
18376;SDS011;9315;52.624;13.544;2022-11-15T06:58:32;63.20;;;27.33;;
18376;SDS011;9315;52.624;13.544;2022-11-15T07:01:01;69.43;;;29.47;;
18376;SDS011;9315;52.624;13.544;2022-11-15T07:03:39;68.20;;;29.13;;
18376;SDS011;9315;52.624;13.544;2022-11-15T07:06:09;60.47;;;26.40;;
18376;SDS011;9315;52.624;13.544;2022-11-15T07:08:36;57.70;;;25.97;;
18376;SDS011;9315;52.624;13.544;2022-11-15T07:11:05;63.50;;;27.83;;
18376;SDS011;9315;52.624;13.544;2022-11-15T07:13:35;64.70;;;27.37;;
18376;SDS011;9315;52.624;13.544;2022-11-15T07:16:04;51.67;;;25.20;;
18376;SDS011;9315;52.624;13.544;2022-11-15T07:18:34;67.73;;;29.40;;
18376;SDS011;9315;52.624;13.544;2022-11-15T07:21:08;57.00;;;25.53;;
18376;SDS011;9315;52.624;13.544;2022-11-15T07:23:37;49.20;;;24.53;;
18376;SDS011;9315;52.624;13.544;2022-11-15T07:26:05;48.63;;;23.70;;
18376;SDS011;9315;52.624;13.544;2022-11-15T07:28:34;48.47;;;23.73;;
18376;SDS011;9315;52.624;13.544;2022-11-15T07:31:04;52.20;;;24.43;;
18376;SDS011;9315;52.624;13.544;2022-11-15T07:33:34;54.77;;;24.83;;
18376;SDS011;9315;52.624;13.544;2022-11-15T07:36:02;59.03;;;26.70;;
18376;SDS011;9315;52.624;13.544;2022-11-15T07:38:32;48.93;;;23.57;;
18376;SDS011;9315;52.624;13.544;2022-11-15T07:41:07;62.03;;;28.13;;
18376;SDS011;9315;52.624;13.544;2022-11-15T07:43:34;60.93;;;28.07;;
18376;SDS011;9315;52.624;13.544;2022-11-15T07:46:05;79.97;;;33.30;;
18376;SDS011;9315;52.624;13.544;2022-11-15T07:48:38;58.83;;;27.57;;
18376;SDS011;9315;52.624;13.544;2022-11-15T07:51:11;45.40;;;22.37;;
18376;SDS011;9315;52.624;13.544;2022-11-15T07:53:40;78.17;;;31.87;;
18376;SDS011;9315;52.624;13.544;2022-11-15T07:56:09;50.27;;;24.90;;
18376;SDS011;9315;52.624;13.544;2022-11-15T07:58:37;55.50;;;27.07;;
18376;SDS011;9315;52.624;13.544;2022-11-15T08:01:04;62.83;;;27.93;;
18376;SDS011;9315;52.624;13.544;2022-11-15T08:03:35;71.40;;;31.03;;
18376;SDS011;9315;52.624;13.544;2022-11-15T08:06:03;69.80;;;31.80;;
18376;SDS011;9315;52.624;13.544;2022-11-15T08:08:33;69.60;;;31.33;;
18376;SDS011;9315;52.624;13.544;2022-11-15T08:11:00;72.97;;;31.33;;
18376;SDS011;9315;52.624;13.544;2022-11-15T08:13:27;76.23;;;32.27;;
18376;SDS011;9315;52.624;13.544;2022-11-15T08:15:59;76.73;;;32.80;;
18376;SDS011;9315;52.624;13.544;2022-11-15T08:18:28;78.40;;;33.37;;
18376;SDS011;9315;52.624;13.544;2022-11-15T08:20:57;68.30;;;31.70;;
18376;SDS011;9315;52.624;13.544;2022-11-15T08:23:28;65.33;;;29.90;;
18376;SDS011;9315;52.624;13.544;2022-11-15T08:26:02;53.77;;;28.03;;
18376;SDS011;9315;52.624;13.544;2022-11-15T08:28:30;60.93;;;29.97;;
18376;SDS011;9315;52.624;13.544;2022-11-15T08:31:00;60.17;;;28.10;;
18376;SDS011;9315;52.624;13.544;2022-11-15T08:33:28;66.63;;;30.17;;
18376;SDS011;9315;52.624;13.544;2022-11-15T08:35:58;59.20;;;29.73;;
18376;SDS011;9315;52.624;13.544;2022-11-15T08:38:27;71.90;;;32.60;;
18376;SDS011;9315;52.624;13.544;2022-11-15T08:41:01;69.43;;;33.13;;
18376;SDS011;9315;52.624;13.544;2022-11-15T08:43:30;56.13;;;28.47;;
18376;SDS011;9315;52.624;13.544;2022-11-15T08:45:58;56.57;;;28.17;;
18376;SDS011;9315;52.624;13.544;2022-11-15T08:48:25;66.27;;;31.63;;
18376;SDS011;9315;52.624;13.544;2022-11-15T08:50:53;65.37;;;31.13;;
18376;SDS011;9315;52.624;13.544;2022-11-15T08:53:22;58.57;;;29.70;;
18376;SDS011;9315;52.624;13.544;2022-11-15T08:55:50;60.27;;;30.47;;
18376;SDS011;9315;52.624;13.544;2022-11-15T08:58:18;60.47;;;30.47;;
18376;SDS011;9315;52.624;13.544;2022-11-15T09:00:45;51.67;;;27.23;;
18376;SDS011;9315;52.624;13.544;2022-11-15T09:03:13;55.00;;;29.03;;
18376;SDS011;9315;52.624;13.544;2022-11-15T09:05:40;61.50;;;29.77;;
18376;SDS011;9315;52.624;13.544;2022-11-15T09:08:07;52.63;;;29.87;;
18376;SDS011;9315;52.624;13.544;2022-11-15T09:10:54;51.70;;;27.67;;
18376;SDS011;9315;52.624;13.544;2022-11-15T09:13:23;48.90;;;27.63;;
18376;SDS011;9315;52.624;13.544;2022-11-15T09:15:50;106.23;;;59.27;;
18376;SDS011;9315;52.624;13.544;2022-11-15T09:18:17;70.40;;;39.40;;
18376;SDS011;9315;52.624;13.544;2022-11-15T09:20:47;48.40;;;29.37;;
18376;SDS011;9315;52.624;13.544;2022-11-15T09:23:14;47.03;;;27.07;;
18376;SDS011;9315;52.624;13.544;2022-11-15T09:25:41;48.83;;;27.17;;
18376;SDS011;9315;52.624;13.544;2022-11-15T09:28:08;50.27;;;27.70;;
18376;SDS011;9315;52.624;13.544;2022-11-15T09:30:35;45.23;;;26.67;;
18376;SDS011;9315;52.624;13.544;2022-11-15T09:33:09;50.73;;;27.43;;
18376;SDS011;9315;52.624;13.544;2022-11-15T09:35:38;53.73;;;27.90;;
18376;SDS011;9315;52.624;13.544;2022-11-15T09:38:07;48.33;;;26.53;;
18376;SDS011;9315;52.624;13.544;2022-11-15T09:40:35;43.37;;;25.37;;
18376;SDS011;9315;52.624;13.544;2022-11-15T09:46:22;42.03;;;24.90;;
18376;SDS011;9315;52.624;13.544;2022-11-15T09:49:15;48.23;;;27.57;;
18376;SDS011;9315;52.624;13.544;2022-11-15T09:51:45;46.07;;;26.57;;
18376;SDS011;9315;52.624;13.544;2022-11-15T09:54:21;44.27;;;26.77;;
18376;SDS011;9315;52.624;13.544;2022-11-15T09:57:22;41.83;;;25.97;;
18376;SDS011;9315;52.624;13.544;2022-11-15T10:03:23;42.17;;;24.40;;
18376;SDS011;9315;52.624;13.544;2022-11-15T10:06:10;37.37;;;22.47;;
18376;SDS011;9315;52.624;13.544;2022-11-15T10:09:06;40.93;;;23.93;;
18376;SDS011;9315;52.624;13.544;2022-11-15T10:11:55;32.07;;;20.70;;
18376;SDS011;9315;52.624;13.544;2022-11-15T10:14:24;34.80;;;19.93;;
18376;SDS011;9315;52.624;13.544;2022-11-15T10:19:41;35.30;;;20.97;;
18376;SDS011;9315;52.624;13.544;2022-11-15T10:30:51;42.60;;;21.83;;
18376;SDS011;9315;52.624;13.544;2022-11-15T10:38:54;30.90;;;18.77;;
18376;SDS011;9315;52.624;13.544;2022-11-15T10:44:18;30.20;;;19.37;;
18376;SDS011;9315;52.624;13.544;2022-11-15T10:49:24;32.03;;;19.60;;
18376;SDS011;9315;52.624;13.544;2022-11-15T10:52:00;30.80;;;19.53;;
18376;SDS011;9315;52.624;13.544;2022-11-15T10:54:38;31.67;;;19.17;;
18376;SDS011;9315;52.624;13.544;2022-11-15T10:57:15;32.53;;;18.47;;
18376;SDS011;9315;52.624;13.544;2022-11-15T10:59:54;31.60;;;19.57;;
18376;SDS011;9315;52.624;13.544;2022-11-15T11:10:37;37.60;;;24.87;;
18376;SDS011;9315;52.624;13.544;2022-11-15T11:13:30;29.63;;;19.07;;
18376;SDS011;9315;52.624;13.544;2022-11-15T11:30:40;31.93;;;20.43;;
18376;SDS011;9315;52.624;13.544;2022-11-15T11:48:42;31.53;;;22.53;;
18376;SDS011;9315;52.624;13.544;2022-11-15T11:51:27;27.67;;;17.87;;
18376;SDS011;9315;52.624;13.544;2022-11-15T11:54:12;29.07;;;19.80;;
18376;SDS011;9315;52.624;13.544;2022-11-15T11:57:07;25.80;;;17.10;;
18376;SDS011;9315;52.624;13.544;2022-11-15T12:05:39;24.17;;;16.97;;
18376;SDS011;9315;52.624;13.544;2022-11-15T12:08:22;29.37;;;18.37;;
18376;SDS011;9315;52.624;13.544;2022-11-15T12:14:33;22.43;;;16.67;;
18376;SDS011;9315;52.624;13.544;2022-11-15T12:17:12;29.00;;;17.03;;
18376;SDS011;9315;52.624;13.544;2022-11-15T12:19:42;27.10;;;16.33;;
18376;SDS011;9315;52.624;13.544;2022-11-15T12:22:15;26.27;;;16.37;;
18376;SDS011;9315;52.624;13.544;2022-11-15T12:27:35;23.50;;;14.73;;
18376;SDS011;9315;52.624;13.544;2022-11-15T12:30:38;41.67;;;19.93;;
18376;SDS011;9315;52.624;13.544;2022-11-15T12:36:12;27.83;;;18.50;;
18376;SDS011;9315;52.624;13.544;2022-11-15T12:39:09;21.70;;;15.50;;
18376;SDS011;9315;52.624;13.544;2022-11-15T12:41:44;21.20;;;15.30;;
18376;SDS011;9315;52.624;13.544;2022-11-15T12:47:22;43.63;;;25.13;;
18376;SDS011;9315;52.624;13.544;2022-11-15T12:49:52;30.87;;;18.97;;
18376;SDS011;9315;52.624;13.544;2022-11-15T12:52:20;32.23;;;18.60;;
18376;SDS011;9315;52.624;13.544;2022-11-15T12:54:50;37.13;;;22.03;;
18376;SDS011;9315;52.624;13.544;2022-11-15T12:57:34;20.27;;;13.60;;
18376;SDS011;9315;52.624;13.544;2022-11-15T13:02:50;63.27;;;36.27;;
18376;SDS011;9315;52.624;13.544;2022-11-15T13:05:55;48.80;;;28.70;;
18376;SDS011;9315;52.624;13.544;2022-11-15T13:08:38;26.17;;;22.27;;
18376;SDS011;9315;52.624;13.544;2022-11-15T13:19:46;19.33;;;14.10;;
18376;SDS011;9315;52.624;13.544;2022-11-15T13:22:25;24.33;;;18.03;;
18376;SDS011;9315;52.624;13.544;2022-11-15T13:28:43;18.53;;;12.13;;
18376;SDS011;9315;52.624;13.544;2022-11-15T13:31:29;20.57;;;13.13;;
18376;SDS011;9315;52.624;13.544;2022-11-15T13:34:17;20.20;;;12.93;;
18376;SDS011;9315;52.624;13.544;2022-11-15T13:39:47;18.97;;;12.40;;
18376;SDS011;9315;52.624;13.544;2022-11-15T13:42:16;21.13;;;15.00;;
18376;SDS011;9315;52.624;13.544;2022-11-15T13:45:00;21.07;;;13.10;;
18376;SDS011;9315;52.624;13.544;2022-11-15T13:47:31;23.23;;;16.07;;
18376;SDS011;9315;52.624;13.544;2022-11-15T13:49:58;22.17;;;13.93;;
18376;SDS011;9315;52.624;13.544;2022-11-15T13:52:37;22.93;;;14.63;;
18376;SDS011;9315;52.624;13.544;2022-11-15T13:57:45;18.60;;;12.67;;
18376;SDS011;9315;52.624;13.544;2022-11-15T14:03:27;18.07;;;12.90;;
18376;SDS011;9315;52.624;13.544;2022-11-15T14:06:09;18.97;;;13.37;;
18376;SDS011;9315;52.624;13.544;2022-11-15T14:09:00;22.43;;;13.17;;
18376;SDS011;9315;52.624;13.544;2022-11-15T14:11:37;38.33;;;21.10;;
18376;SDS011;9315;52.624;13.544;2022-11-15T14:14:20;28.37;;;16.93;;
18376;SDS011;9315;52.624;13.544;2022-11-15T14:16:57;50.13;;;31.03;;
18376;SDS011;9315;52.624;13.544;2022-11-15T14:30:57;23.97;;;14.83;;
18376;SDS011;9315;52.624;13.544;2022-11-15T14:33:30;21.53;;;13.90;;
18376;SDS011;9315;52.624;13.544;2022-11-15T14:36:11;22.37;;;14.97;;
18376;SDS011;9315;52.624;13.544;2022-11-15T14:38:46;21.63;;;13.97;;
18376;SDS011;9315;52.624;13.544;2022-11-15T14:41:21;22.37;;;13.93;;
18376;SDS011;9315;52.624;13.544;2022-11-15T14:43:52;27.83;;;16.63;;
18376;SDS011;9315;52.624;13.544;2022-11-15T14:46:19;25.97;;;15.70;;
18376;SDS011;9315;52.624;13.544;2022-11-15T14:48:47;24.13;;;15.97;;
18376;SDS011;9315;52.624;13.544;2022-11-15T14:51:17;22.33;;;14.97;;
18376;SDS011;9315;52.624;13.544;2022-11-15T14:53:46;29.40;;;16.83;;
18376;SDS011;9315;52.624;13.544;2022-11-15T14:56:13;24.00;;;15.10;;
18376;SDS011;9315;52.624;13.544;2022-11-15T14:58:42;24.80;;;16.00;;
18376;SDS011;9315;52.624;13.544;2022-11-15T15:01:23;30.27;;;16.37;;
18376;SDS011;9315;52.624;13.544;2022-11-15T15:03:52;27.97;;;16.40;;
18376;SDS011;9315;52.624;13.544;2022-11-15T15:06:24;24.83;;;15.70;;
18376;SDS011;9315;52.624;13.544;2022-11-15T15:08:52;26.20;;;16.13;;
18376;SDS011;9315;52.624;13.544;2022-11-15T15:11:23;28.43;;;17.33;;
18376;SDS011;9315;52.624;13.544;2022-11-15T15:13:54;30.40;;;18.20;;
18376;SDS011;9315;52.624;13.544;2022-11-15T15:16:26;26.87;;;17.03;;
18376;SDS011;9315;52.624;13.544;2022-11-15T15:18:53;29.67;;;17.53;;
18376;SDS011;9315;52.624;13.544;2022-11-15T15:21:22;28.23;;;14.63;;
18376;SDS011;9315;52.624;13.544;2022-11-15T15:24:01;25.87;;;15.70;;
18376;SDS011;9315;52.624;13.544;2022-11-15T15:26:29;25.20;;;15.47;;
18376;SDS011;9315;52.624;13.544;2022-11-15T15:28:59;23.27;;;15.70;;
18376;SDS011;9315;52.624;13.544;2022-11-15T15:31:26;25.10;;;15.70;;
18376;SDS011;9315;52.624;13.544;2022-11-15T15:33:53;30.73;;;19.97;;
18376;SDS011;9315;52.624;13.544;2022-11-15T15:36:20;28.67;;;17.13;;
18376;SDS011;9315;52.624;13.544;2022-11-15T15:38:47;27.70;;;18.77;;
18376;SDS011;9315;52.624;13.544;2022-11-15T15:41:15;34.40;;;20.13;;
18376;SDS011;9315;52.624;13.544;2022-11-15T15:43:43;33.90;;;20.50;;
18376;SDS011;9315;52.624;13.544;2022-11-15T15:46:15;29.17;;;19.23;;
18376;SDS011;9315;52.624;13.544;2022-11-15T15:48:45;27.77;;;18.80;;
18376;SDS011;9315;52.624;13.544;2022-11-15T15:51:13;29.90;;;19.73;;
18376;SDS011;9315;52.624;13.544;2022-11-15T15:53:46;30.67;;;19.87;;
18376;SDS011;9315;52.624;13.544;2022-11-15T15:56:14;31.73;;;20.47;;
18376;SDS011;9315;52.624;13.544;2022-11-15T15:58:41;33.53;;;21.87;;
18376;SDS011;9315;52.624;13.544;2022-11-15T16:01:08;31.20;;;20.70;;
18376;SDS011;9315;52.624;13.544;2022-11-15T16:03:35;30.70;;;19.90;;
18376;SDS011;9315;52.624;13.544;2022-11-15T16:06:02;34.13;;;20.67;;
18376;SDS011;9315;52.624;13.544;2022-11-15T16:08:31;30.50;;;19.87;;
18376;SDS011;9315;52.624;13.544;2022-11-15T16:11:18;31.53;;;19.80;;
18376;SDS011;9315;52.624;13.544;2022-11-15T16:13:45;33.40;;;20.40;;
18376;SDS011;9315;52.624;13.544;2022-11-15T16:16:12;34.80;;;21.03;;
18376;SDS011;9315;52.624;13.544;2022-11-15T16:18:40;29.07;;;18.53;;
18376;SDS011;9315;52.624;13.544;2022-11-15T16:21:07;28.67;;;17.63;;
18376;SDS011;9315;52.624;13.544;2022-11-15T16:23:35;30.93;;;19.87;;
18376;SDS011;9315;52.624;13.544;2022-11-15T16:26:02;33.13;;;20.07;;
18376;SDS011;9315;52.624;13.544;2022-11-15T16:28:50;33.43;;;20.67;;
18376;SDS011;9315;52.624;13.544;2022-11-15T16:31:18;31.33;;;19.43;;
18376;SDS011;9315;52.624;13.544;2022-11-15T16:33:47;36.47;;;21.90;;
18376;SDS011;9315;52.624;13.544;2022-11-15T16:36:21;36.40;;;21.93;;
18376;SDS011;9315;52.624;13.544;2022-11-15T16:38:56;33.07;;;20.73;;
18376;SDS011;9315;52.624;13.544;2022-11-15T16:41:24;34.43;;;21.23;;
18376;SDS011;9315;52.624;13.544;2022-11-15T16:43:52;34.13;;;20.77;;
18376;SDS011;9315;52.624;13.544;2022-11-15T16:46:21;36.10;;;22.03;;
18376;SDS011;9315;52.624;13.544;2022-11-15T16:48:52;43.17;;;24.50;;
18376;SDS011;9315;52.624;13.544;2022-11-15T16:51:19;44.73;;;25.93;;
18376;SDS011;9315;52.624;13.544;2022-11-15T16:53:48;42.97;;;25.37;;
18376;SDS011;9315;52.624;13.544;2022-11-15T16:56:22;44.80;;;26.33;;
18376;SDS011;9315;52.624;13.544;2022-11-15T16:58:56;52.80;;;27.90;;
18376;SDS011;9315;52.624;13.544;2022-11-15T17:01:29;63.77;;;31.53;;
18376;SDS011;9315;52.624;13.544;2022-11-15T17:04:12;55.93;;;30.20;;
18376;SDS011;9315;52.624;13.544;2022-11-15T17:06:39;70.47;;;35.40;;
18376;SDS011;9315;52.624;13.544;2022-11-15T17:09:16;65.60;;;33.50;;
18376;SDS011;9315;52.624;13.544;2022-11-15T17:11:49;75.40;;;36.87;;
18376;SDS011;9315;52.624;13.544;2022-11-15T17:14:17;80.50;;;38.37;;